createdAt,value
2018-04-17T00:01:35.619Z,10.10
2018-04-17T00:04:03.861Z,10.00
2018-04-17T00:06:32.054Z,10.10
2018-04-17T00:09:00.304Z,10.10
2018-04-17T00:11:28.589Z,10.10
2018-04-17T00:13:56.830Z,10.10
2018-04-17T00:16:25.072Z,10.20
2018-04-17T00:18:54.040Z,10.10
2018-04-17T00:21:22.737Z,10.10
2018-04-17T00:23:51.323Z,10.00
2018-04-17T00:26:19.615Z,10.00
2018-04-17T00:28:47.858Z,10.00
2018-04-17T00:31:15.874Z,10.00
2018-04-17T00:33:44.146Z,10.20
2018-04-17T00:36:12.388Z,10.20
2018-04-17T00:38:40.827Z,10.10
2018-04-17T00:41:08.991Z,10.10
2018-04-17T00:43:37.902Z,10.00
2018-04-17T00:46:06.145Z,10.00
2018-04-17T00:48:34.276Z,9.90
2018-04-17T00:51:02.827Z,9.90
2018-04-17T00:53:42.802Z,9.90
2018-04-17T00:56:11.569Z,9.90
2018-04-17T00:58:39.612Z,9.90
2018-04-17T01:01:07.550Z,10.00
2018-04-17T01:03:35.836Z,9.90
2018-04-17T01:06:04.079Z,9.90
2018-04-17T01:08:32.321Z,9.80
2018-04-17T01:11:00.564Z,9.80
2018-04-17T01:13:28.807Z,9.80
2018-04-17T01:15:57.051Z,9.80
2018-04-17T01:18:25.248Z,9.80
2018-04-17T01:20:53.534Z,9.70
2018-04-17T01:23:21.944Z,9.70
2018-04-17T01:25:50.221Z,9.70
2018-04-17T01:28:18.457Z,9.60
2018-04-17T01:30:46.700Z,9.60
2018-04-17T01:33:14.951Z,9.70
2018-04-17T01:35:42.953Z,9.60
2018-04-17T01:38:10.995Z,9.60
2018-04-17T01:40:39.276Z,9.50
2018-04-17T01:43:07.419Z,9.50
2018-04-17T01:45:35.246Z,9.60
2018-04-17T01:48:03.180Z,9.50
2018-04-17T01:50:31.373Z,9.60
2018-04-17T01:52:59.638Z,9.50
2018-04-17T01:55:28.732Z,9.50
2018-04-17T01:57:56.975Z,9.50
2018-04-17T02:00:25.217Z,9.50
2018-04-17T02:02:53.464Z,9.50
2018-04-17T02:05:21.702Z,9.50
2018-04-17T02:07:49.866Z,9.50
2018-04-17T02:10:18.733Z,9.50
2018-04-17T02:12:46.985Z,9.40
2018-04-17T02:15:15.262Z,9.50
2018-04-17T02:17:43.505Z,9.50
2018-04-17T02:20:11.627Z,9.50
2018-04-17T02:22:39.694Z,9.50
2018-04-17T02:25:08.192Z,9.50
2018-04-17T02:27:36.578Z,9.40
2018-04-17T02:30:04.822Z,9.40
2018-04-17T02:32:32.913Z,9.30
2018-04-17T02:35:01.155Z,9.30
2018-04-17T02:37:29.397Z,9.40
2018-04-17T02:39:57.689Z,9.30
2018-04-17T02:42:25.930Z,9.30
2018-04-17T02:44:54.048Z,9.30
2018-04-17T02:47:22.094Z,9.20
2018-04-17T02:49:50.264Z,9.20
2018-04-17T02:52:18.506Z,9.20
2018-04-17T02:54:46.691Z,9.10
2018-04-17T02:57:14.597Z,9.20
2018-04-17T02:59:42.774Z,9.10
2018-04-17T03:02:11.671Z,9.10
2018-04-17T03:04:39.913Z,9.10
2018-04-17T03:07:08.158Z,9.10
2018-04-17T03:09:36.340Z,9.10
2018-04-17T03:12:04.443Z,9.10
2018-04-17T03:14:32.687Z,9.10
2018-04-17T03:17:00.867Z,9.10
2018-04-17T03:19:29.172Z,9.10
2018-04-17T03:21:57.312Z,9.10
2018-04-17T03:24:25.461Z,9.00
2018-04-17T03:26:53.703Z,9.00
2018-04-17T03:29:21.878Z,9.00
2018-04-17T03:31:50.975Z,9.00
2018-04-17T03:34:19.218Z,9.00
2018-04-17T03:36:47.404Z,9.00
2018-04-17T03:39:15.308Z,9.00
2018-04-17T03:41:43.551Z,9.00
2018-04-17T03:44:11.728Z,9.00
2018-04-17T03:46:40.498Z,8.90
2018-04-17T03:49:08.550Z,8.90
2018-04-17T03:51:36.653Z,8.90
2018-04-17T03:54:05.495Z,8.80
2018-04-17T03:56:33.791Z,8.80
2018-04-17T03:59:01.989Z,8.80
2018-04-17T04:01:30.196Z,8.80
2018-04-17T04:03:59.306Z,8.90
2018-04-17T04:06:27.549Z,8.80
2018-04-17T04:08:55.526Z,8.90
2018-04-17T04:11:24.425Z,8.80
2018-04-17T04:13:52.678Z,8.70
2018-04-17T04:16:32.524Z,8.70
2018-04-17T04:19:12.549Z,8.60
2018-04-17T04:21:52.391Z,8.60
2018-04-17T04:24:31.840Z,8.50
2018-04-17T04:26:59.838Z,8.60
2018-04-17T04:29:27.737Z,8.50
2018-04-17T04:31:55.882Z,8.50
2018-04-17T04:34:24.768Z,8.50
2018-04-17T04:36:53.054Z,8.50
2018-04-17T04:39:21.297Z,8.60
2018-04-17T04:41:49.542Z,8.60
2018-04-17T04:44:17.786Z,8.60
2018-04-17T04:46:45.929Z,8.60
2018-04-17T04:49:14.025Z,8.60
2018-04-17T04:51:42.212Z,8.50
2018-04-17T04:54:10.361Z,8.60
2018-04-17T04:56:38.356Z,8.60
2018-04-17T04:59:06.560Z,8.60
2018-04-17T05:01:34.627Z,8.60
2018-04-17T05:04:02.738Z,8.60
2018-04-17T05:06:31.765Z,8.60
2018-04-17T05:09:00.009Z,8.60
2018-04-17T05:11:28.252Z,8.60
2018-04-17T05:13:56.437Z,8.60
2018-04-17T05:16:24.680Z,8.60
2018-04-17T05:18:52.724Z,8.60
2018-04-17T05:21:21.564Z,8.60
2018-04-17T05:23:49.862Z,8.50
2018-04-17T05:26:18.102Z,8.50
2018-04-17T05:28:46.155Z,8.60
2018-04-17T05:31:14.385Z,8.60
2018-04-17T05:33:42.632Z,8.70
2018-04-17T05:36:10.817Z,8.70
2018-04-17T05:38:38.887Z,8.70
2018-04-17T05:41:07.164Z,8.70
2018-04-17T05:43:35.414Z,8.80
2018-04-17T05:46:04.385Z,8.80
2018-04-17T05:48:32.689Z,8.80
2018-04-17T05:51:01.706Z,9.00
2018-04-17T05:53:30.507Z,9.00
2018-04-17T05:55:58.734Z,9.00
2018-04-17T05:58:26.970Z,9.10
2018-04-17T06:00:55.265Z,9.20
2018-04-17T06:03:23.268Z,9.20
2018-04-17T06:05:51.554Z,9.30
2018-04-17T06:08:19.601Z,9.40
2018-04-17T06:10:48.236Z,9.50
2018-04-17T06:13:16.423Z,9.60
2018-04-17T06:15:44.639Z,9.80
2018-04-17T06:18:12.963Z,9.80
2018-04-17T06:20:41.214Z,9.90
2018-04-17T06:23:09.448Z,10.00
2018-04-17T06:25:37.695Z,10.00
2018-04-17T06:28:05.876Z,10.10
2018-04-17T06:30:34.177Z,10.20
2018-04-17T06:33:02.359Z,10.30
2018-04-17T06:35:30.578Z,10.50
2018-04-17T06:37:58.472Z,10.90
2018-04-17T06:40:26.635Z,11.30
2018-04-17T06:42:54.998Z,12.30
2018-04-17T06:45:22.995Z,12.90
2018-04-17T06:47:51.283Z,13.70
2018-04-17T06:50:19.525Z,14.30
2018-04-17T06:52:47.702Z,14.90
2018-04-17T06:55:15.913Z,15.10
2018-04-17T06:57:44.057Z,15.50
2018-04-17T07:00:12.299Z,16.00
2018-04-17T07:02:40.542Z,16.40
2018-04-17T07:05:08.552Z,17.10
2018-04-17T07:07:36.587Z,18.50
2018-04-17T07:10:04.819Z,18.70
2018-04-17T07:12:33.118Z,19.20
2018-04-17T07:15:02.678Z,18.80
2018-04-17T07:17:30.980Z,18.20
2018-04-17T07:19:59.812Z,20.20
2018-04-17T07:22:28.055Z,20.10
2018-04-17T07:24:56.298Z,21.40
2018-04-17T07:27:24.198Z,21.70
2018-04-17T07:29:52.330Z,22.50
2018-04-17T07:32:20.633Z,21.10
2018-04-17T07:34:48.873Z,21.90
2018-04-17T07:37:17.117Z,22.20
2018-04-17T07:39:45.362Z,22.90
2018-04-17T07:42:14.388Z,23.30
2018-04-17T07:44:42.440Z,23.20
2018-04-17T07:47:22.706Z,23.90
2018-04-17T07:49:50.680Z,24.60
2018-04-17T07:52:18.958Z,25.30
2018-04-17T07:54:47.156Z,24.00
2018-04-17T07:57:15.346Z,22.50
2018-04-17T07:59:43.437Z,23.10
2018-04-17T08:02:11.732Z,20.50
2018-04-17T08:04:39.675Z,19.10
2018-04-17T08:07:07.766Z,20.00
2018-04-17T08:09:35.823Z,20.00
2018-04-17T08:12:04.003Z,21.10
2018-04-17T08:14:32.093Z,21.10
2018-04-17T08:17:00.935Z,23.90
2018-04-17T08:19:29.339Z,23.90
2018-04-17T08:21:57.281Z,22.10
2018-04-17T08:24:25.461Z,22.70
2018-04-17T08:26:53.681Z,23.10
2018-04-17T08:29:21.614Z,24.60
2018-04-17T08:31:49.766Z,27.40
2018-04-17T08:34:17.901Z,26.30
2018-04-17T08:36:46.151Z,26.80
2018-04-17T08:39:14.931Z,28.90
2018-04-17T08:41:42.825Z,28.90
2018-04-17T08:44:10.835Z,28.80
2018-04-17T08:46:39.113Z,27.80
2018-04-17T08:49:07.538Z,28.50
2018-04-17T08:51:35.954Z,29.60
2018-04-17T08:54:04.197Z,29.70
2018-04-17T08:56:32.477Z,28.90
2018-04-17T08:59:00.491Z,29.20
2018-04-17T09:01:28.701Z,27.90
2018-04-17T09:03:57.013Z,28.00
2018-04-17T09:06:25.249Z,30.60
2018-04-17T09:08:53.498Z,30.70
2018-04-17T09:11:21.742Z,31.90
2018-04-17T09:13:49.913Z,31.90
2018-04-17T09:16:18.958Z,29.60
2018-04-17T09:18:47.248Z,29.60
2018-04-17T09:21:15.500Z,29.00
2018-04-17T09:23:44.687Z,30.00
2018-04-17T09:26:12.850Z,30.00
2018-04-17T09:28:40.808Z,30.80
2018-04-17T09:31:08.988Z,29.60
2018-04-17T09:33:37.690Z,30.90
2018-04-17T09:36:05.889Z,30.90
2018-04-17T09:38:33.913Z,31.20
2018-04-17T09:41:02.956Z,30.20
2018-04-17T09:43:31.247Z,30.20
2018-04-17T09:45:59.490Z,31.80
2018-04-17T09:48:27.732Z,33.00
2018-04-17T09:50:55.974Z,31.20
2018-04-17T09:53:24.143Z,29.00
2018-04-17T09:55:53.246Z,30.30
2018-04-17T09:58:21.300Z,30.30
2018-04-17T10:00:55.040Z,30.40
2018-04-17T10:03:23.289Z,30.60
2018-04-17T10:05:52.079Z,28.50
2018-04-17T10:10:54.005Z,27.40
2018-04-17T10:13:22.152Z,26.20
2018-04-17T10:15:51.179Z,28.70
2018-04-17T10:18:19.421Z,28.70
2018-04-17T10:20:47.479Z,28.30
2018-04-17T10:23:15.483Z,28.80
2018-04-17T10:25:43.757Z,28.20
2018-04-17T10:28:12.313Z,28.60
2018-04-17T10:30:41.180Z,26.40
2018-04-17T10:33:09.473Z,26.30
2018-04-17T10:35:37.709Z,25.90
2018-04-17T10:38:06.744Z,27.40
2018-04-17T10:40:34.855Z,27.30
2018-04-17T10:43:03.026Z,28.00
2018-04-17T10:45:31.210Z,28.00
2018-04-17T10:47:59.452Z,27.50
2018-04-17T10:50:27.758Z,27.40
2018-04-17T10:52:55.761Z,27.30
2018-04-17T10:55:23.930Z,27.60
2018-04-17T10:57:52.023Z,27.80
2018-04-17T11:00:21.708Z,27.50
2018-04-17T11:02:50.661Z,27.20
2018-04-17T11:05:19.525Z,27.10
2018-04-17T11:07:47.819Z,27.00
2018-04-17T11:10:15.825Z,27.00
2018-04-17T11:12:44.100Z,26.90
2018-04-17T11:15:12.345Z,27.20
2018-04-17T11:17:40.338Z,27.10
2018-04-17T11:20:08.555Z,27.30
2018-04-17T11:22:37.463Z,27.60
2018-04-17T11:25:05.705Z,27.60
2018-04-17T11:27:33.947Z,27.90
2018-04-17T11:30:02.191Z,27.50
2018-04-17T11:32:30.343Z,27.60
2018-04-17T11:34:58.435Z,28.00
2018-04-17T11:37:26.679Z,28.20
2018-04-17T11:39:54.963Z,28.30
2018-04-17T11:42:23.207Z,28.50
2018-04-17T11:44:51.405Z,28.70
2018-04-17T11:47:19.601Z,29.00
2018-04-17T11:49:47.639Z,29.00
2018-04-17T11:52:15.554Z,28.50
2018-04-17T11:54:43.731Z,28.20
2018-04-17T11:57:12.470Z,28.90
2018-04-17T11:59:40.476Z,29.70
2018-04-17T12:02:08.528Z,30.10
2018-04-17T12:04:37.194Z,30.00
2018-04-17T12:07:05.436Z,29.80
2018-04-17T12:09:33.499Z,29.90
2018-04-17T12:12:01.724Z,30.10
2018-04-17T12:14:29.774Z,30.00
2018-04-17T12:16:58.576Z,28.60
2018-04-17T12:19:26.845Z,28.50
2018-04-17T12:21:55.872Z,28.50
2018-04-17T12:24:24.115Z,29.60
2018-04-17T12:26:52.082Z,30.00
2018-04-17T12:29:21.881Z,30.10
2018-04-17T12:31:50.138Z,30.10
2018-04-17T12:34:19.381Z,29.60
2018-04-17T12:36:48.675Z,28.90
2018-04-17T12:39:16.912Z,28.80
2018-04-17T12:41:44.925Z,29.60
2018-04-17T12:44:13.201Z,30.60
2018-04-17T12:46:42.144Z,30.10
2018-04-17T12:49:10.214Z,30.10
2018-04-17T12:51:38.518Z,30.00
2018-04-17T12:54:06.693Z,30.20
2018-04-17T12:56:35.405Z,29.10
2018-04-17T12:59:03.638Z,29.00
2018-04-17T13:01:32.678Z,28.90
2018-04-17T13:04:00.911Z,28.80
2018-04-17T13:06:29.054Z,28.70
2018-04-17T13:08:57.722Z,29.10
2018-04-17T13:11:26.565Z,27.60
2018-04-17T13:13:54.627Z,27.60
2018-04-17T13:16:22.826Z,27.80
2018-04-17T13:18:51.154Z,28.20
2018-04-17T13:21:19.537Z,28.50
2018-04-17T13:23:47.835Z,29.10
2018-04-17T13:26:16.003Z,27.90
2018-04-17T13:28:44.766Z,27.40
2018-04-17T13:31:12.955Z,27.40
2018-04-17T13:33:41.151Z,26.80
2018-04-17T13:36:09.457Z,27.50
2018-04-17T13:38:37.688Z,28.20
2018-04-17T13:41:05.935Z,28.50
2018-04-17T13:43:34.145Z,29.20
2018-04-17T13:46:02.184Z,29.20
2018-04-17T13:48:30.205Z,28.90
2018-04-17T13:50:58.502Z,28.40
2018-04-17T13:53:26.744Z,28.50
2018-04-17T13:55:54.991Z,29.00
2018-04-17T13:58:23.776Z,29.20
2018-04-17T14:00:51.818Z,30.10
2018-04-17T14:03:19.987Z,30.10
2018-04-17T14:05:48.257Z,29.70
2018-04-17T14:08:16.323Z,29.70
2018-04-17T14:10:45.188Z,28.90
2018-04-17T14:13:13.403Z,28.90
2018-04-17T14:15:42.301Z,28.90
2018-04-17T14:18:10.543Z,28.80
2018-04-17T14:20:38.591Z,28.90
2018-04-17T14:23:06.773Z,28.90
2018-04-17T14:25:34.712Z,28.20
2018-04-17T14:28:02.925Z,27.50
2018-04-17T14:30:31.954Z,27.90
2018-04-17T14:33:00.120Z,27.90
2018-04-17T14:35:29.028Z,28.30
2018-04-17T14:37:57.633Z,28.30
2018-04-17T14:40:25.827Z,28.00
2018-04-17T14:42:54.544Z,26.80
2018-04-17T14:45:22.788Z,26.80
2018-04-17T14:47:50.934Z,26.10
2018-04-17T14:50:19.018Z,26.10
2018-04-17T14:52:47.260Z,26.40
2018-04-17T14:55:15.487Z,26.40
2018-04-17T14:57:44.244Z,26.70
2018-04-17T15:00:12.632Z,26.70
2018-04-17T15:02:40.754Z,26.70
2018-04-17T15:05:08.923Z,26.70
2018-04-17T15:07:37.164Z,26.70
2018-04-17T15:10:05.208Z,26.80
2018-04-17T15:12:33.453Z,26.80
2018-04-17T15:15:01.649Z,26.70
2018-04-17T15:17:29.883Z,26.60
2018-04-17T15:19:58.179Z,26.80
2018-04-17T15:22:26.421Z,26.80
2018-04-17T15:24:54.387Z,26.90
2018-04-17T15:27:23.157Z,26.40
2018-04-17T15:29:51.345Z,26.40
2018-04-17T15:32:19.585Z,25.90
2018-04-17T15:34:47.757Z,25.80
2018-04-17T15:37:16.599Z,26.10
2018-04-17T15:39:45.642Z,26.10
2018-04-17T15:42:13.889Z,26.00
2018-04-17T15:47:16.905Z,25.90
2018-04-17T15:49:45.149Z,25.80
2018-04-17T15:52:13.328Z,25.60
2018-04-17T15:54:42.171Z,24.90
2018-04-17T15:57:10.415Z,24.90
2018-04-17T15:59:38.707Z,25.10
2018-04-17T16:02:06.950Z,25.30
2018-04-17T16:04:35.096Z,25.50
2018-04-17T16:07:03.184Z,25.60
2018-04-17T16:09:31.384Z,25.70
2018-04-17T16:11:59.398Z,25.70
2018-04-17T16:14:28.259Z,25.80
2018-04-17T16:16:56.554Z,25.80
2018-04-17T16:19:24.805Z,25.30
2018-04-17T16:21:53.239Z,25.40
2018-04-17T16:24:21.434Z,25.40
2018-04-17T16:26:49.474Z,25.50
2018-04-17T16:29:17.820Z,25.60
2018-04-17T16:31:45.960Z,25.60
2018-04-17T16:34:13.975Z,25.60
2018-04-17T16:36:42.147Z,25.60
2018-04-17T16:39:10.336Z,25.40
2018-04-17T16:41:38.632Z,25.40
2018-04-17T16:44:06.680Z,25.40
2018-04-17T16:46:35.707Z,25.40
2018-04-17T16:49:03.879Z,25.40
2018-04-17T16:51:32.555Z,25.10
2018-04-17T16:54:00.739Z,25.10
2018-04-17T16:56:28.806Z,25.10
2018-04-17T16:58:57.902Z,25.30
2018-04-17T17:01:26.044Z,25.20
2018-04-17T17:03:54.190Z,25.10
2018-04-17T17:06:22.330Z,25.10
2018-04-17T17:08:51.020Z,25.10
2018-04-17T17:11:19.315Z,25.10
2018-04-17T17:13:48.342Z,24.60
2018-04-17T17:16:17.750Z,24.60
2018-04-17T17:18:45.938Z,24.60
2018-04-17T17:21:14.781Z,24.60
2018-04-17T17:23:43.085Z,24.60
2018-04-17T17:26:11.713Z,24.60
2018-04-17T17:28:39.957Z,24.50
2018-04-17T17:31:08.198Z,24.60
2018-04-17T17:33:36.368Z,24.60
2018-04-17T17:36:05.410Z,24.60
2018-04-17T17:38:33.517Z,24.60
2018-04-17T17:41:02.544Z,24.50
2018-04-17T17:43:30.786Z,24.40
2018-04-17T17:45:59.029Z,24.30
2018-04-17T17:48:27.272Z,24.30
2018-04-17T17:50:55.472Z,24.30
2018-04-17T17:53:23.682Z,24.30
2018-04-17T17:55:52.727Z,24.10
2018-04-17T17:58:21.027Z,24.10
2018-04-17T18:00:49.270Z,24.00
2018-04-17T18:03:17.452Z,23.80
2018-04-17T18:05:46.346Z,23.70
2018-04-17T18:08:14.586Z,23.60
2018-04-17T18:10:42.829Z,23.60
2018-04-17T18:13:10.805Z,23.50
2018-04-17T18:15:39.843Z,22.80
2018-04-17T18:18:08.858Z,22.50
2018-04-17T18:20:37.773Z,22.20
2018-04-17T18:23:05.866Z,22.20
2018-04-17T18:25:33.814Z,22.10
2018-04-17T18:28:02.051Z,22.00
2018-04-17T18:30:30.293Z,21.90
2018-04-17T18:32:58.540Z,21.80
2018-04-17T18:35:26.778Z,21.60
2018-04-17T18:37:55.020Z,21.60
2018-04-17T18:40:23.273Z,21.60
2018-04-17T18:42:51.356Z,21.50
2018-04-17T18:45:19.498Z,21.40
2018-04-17T18:47:47.646Z,21.40
2018-04-17T18:50:15.882Z,21.20
2018-04-17T18:52:44.136Z,21.10
2018-04-17T18:55:13.091Z,20.80
2018-04-17T18:57:42.204Z,20.60
2018-04-17T19:00:10.325Z,20.60
2018-04-17T19:02:38.620Z,20.50
2018-04-17T19:05:07.070Z,20.50
2018-04-17T19:07:35.101Z,20.60
2018-04-17T19:10:03.345Z,20.40
2018-04-17T19:12:31.403Z,20.20
2018-04-17T19:14:59.682Z,20.10
2018-04-17T19:17:27.696Z,20.20
2018-04-17T19:19:55.731Z,20.30
2018-04-17T19:22:23.805Z,20.30
2018-04-17T19:24:51.823Z,20.30
2018-04-17T19:27:20.107Z,20.30
2018-04-17T19:29:48.130Z,20.30
2018-04-17T19:32:16.299Z,20.30
2018-04-17T19:34:44.593Z,20.30
2018-04-17T19:37:12.885Z,20.10
2018-04-17T19:39:41.123Z,20.00
2018-04-17T19:42:09.635Z,19.90
2018-04-17T19:44:38.299Z,19.80
2018-04-17T19:47:06.303Z,19.60
2018-04-17T19:49:35.492Z,19.50
2018-04-17T19:52:03.709Z,19.40
2018-04-17T19:54:32.330Z,19.40
2018-04-17T19:57:00.592Z,19.40
2018-04-17T19:59:28.829Z,19.40
2018-04-17T20:01:57.016Z,19.30
2018-04-17T20:04:25.770Z,19.40
2018-04-17T20:06:53.968Z,19.30
2018-04-17T20:09:22.203Z,19.30
2018-04-17T20:11:50.327Z,19.20
2018-04-17T20:14:18.425Z,19.10
2018-04-17T20:16:46.726Z,19.10
2018-04-17T20:19:14.963Z,19.10
2018-04-17T20:21:43.207Z,19.00
2018-04-17T20:24:11.388Z,18.90
2018-04-17T20:26:40.657Z,18.90
2018-04-17T20:29:09.100Z,18.80
2018-04-17T20:31:37.333Z,18.80
2018-04-17T20:34:05.510Z,18.70
2018-04-17T20:36:33.787Z,18.60
2018-04-17T20:39:02.242Z,18.60
2018-04-17T20:41:30.345Z,18.50
2018-04-17T20:43:59.157Z,18.30
2018-04-17T20:46:27.674Z,18.30
2018-04-17T20:48:55.963Z,18.20
2018-04-17T20:51:25.059Z,18.20
2018-04-17T20:53:53.307Z,18.10
2018-04-17T20:56:21.548Z,18.20
2018-04-17T20:58:50.130Z,18.10
2018-04-17T21:01:18.435Z,18.10
2018-04-17T21:03:47.706Z,18.00
2018-04-17T21:06:15.895Z,18.00
2018-04-17T21:08:44.099Z,18.00
2018-04-17T21:11:12.773Z,17.90
2018-04-17T21:13:41.158Z,17.90
2018-04-17T21:16:09.401Z,17.90
2018-04-17T21:18:37.644Z,17.90
2018-04-17T21:21:06.136Z,17.80
2018-04-17T21:23:34.288Z,17.70
2018-04-17T21:26:02.220Z,17.70
2018-04-17T21:28:30.235Z,17.60
2018-04-17T21:30:58.514Z,17.50
2018-04-17T21:33:26.566Z,17.50
2018-04-17T21:35:54.814Z,17.50
2018-04-17T21:38:23.671Z,17.50
2018-04-17T21:40:51.878Z,17.50
2018-04-17T21:43:20.076Z,17.50
2018-04-17T21:45:48.952Z,17.40
2018-04-17T21:48:17.249Z,17.40
2018-04-17T21:50:45.443Z,17.40
2018-04-17T21:53:13.911Z,17.30
2018-04-17T21:55:42.315Z,17.20
2018-04-17T21:58:10.422Z,17.20
2018-04-17T22:00:38.507Z,17.10
2018-04-17T22:03:06.810Z,17.00
2018-04-17T22:05:34.911Z,16.90
2018-04-17T22:08:03.063Z,16.80
2018-04-17T22:10:32.222Z,16.60
2018-04-17T22:13:00.510Z,16.60
2018-04-17T22:15:29.245Z,16.50
2018-04-17T22:17:57.478Z,16.40
2018-04-17T22:20:25.491Z,16.40
2018-04-17T22:22:53.673Z,16.40
2018-04-17T22:25:21.958Z,16.40
2018-04-17T22:27:50.252Z,16.40
2018-04-17T22:30:18.803Z,16.50
2018-04-17T22:32:47.916Z,16.50
2018-04-17T22:35:16.233Z,16.50
2018-04-17T22:37:44.520Z,16.50
2018-04-17T22:40:13.565Z,16.40
2018-04-17T22:42:42.612Z,16.30
2018-04-17T22:45:11.101Z,16.30
2018-04-17T22:47:39.667Z,16.30
2018-04-17T22:50:07.971Z,16.10
2018-04-17T22:52:36.396Z,16.10
2018-04-17T22:55:04.569Z,16.10
2018-04-17T22:57:32.867Z,16.10
2018-04-17T23:00:01.139Z,16.10
2018-04-17T23:02:29.281Z,16.00
2018-04-17T23:04:57.360Z,16.00
2018-04-17T23:07:25.798Z,15.90
2018-04-17T23:09:54.893Z,16.00
2018-04-17T23:12:23.135Z,16.00
2018-04-17T23:14:51.179Z,16.00
2018-04-17T23:17:19.370Z,16.00
2018-04-17T23:19:47.863Z,15.80
2018-04-17T23:22:16.255Z,15.70
2018-04-17T23:24:44.545Z,15.60
2018-04-17T23:27:12.845Z,15.70
2018-04-17T23:29:41.968Z,15.60
2018-04-17T23:32:10.255Z,15.60
2018-04-17T23:34:38.496Z,15.50
2018-04-17T23:37:06.636Z,15.40
2018-04-17T23:39:34.985Z,15.30
2018-04-17T23:42:03.230Z,15.30
2018-04-17T23:44:32.189Z,15.20
2018-04-17T23:47:01.228Z,15.30
2018-04-17T23:49:29.524Z,15.30
2018-04-17T23:51:58.112Z,15.30
2018-04-17T23:54:26.409Z,15.20
2018-04-17T23:56:54.656Z,15.10
2018-04-17T23:59:23.288Z,15.10
